Time;durP1;ratioP1;P1;durP2;ratioP2;P2;SDS_P1;SDS_P2;PMS_P1;PMS_P2;Temp;Humidity;BMP_temperature;BMP_pressure;BME280_temperature;BME280_humidity;BME280_pressure;Samples;Min_cycle;Max_cycle;Signal;HPM_P1;HPM_P2
2023/12/05 07:01:25;;;;;;;5.60;5.30;;;6.20;99.90;8.50;99593.00;;;;6192977;22;1655097;-68
2023/12/05 07:03:53;;;;;;;2.50;2.40;;;6.30;99.90;9.20;99591.00;;;;6215823;23;20226;-68
2023/12/05 07:06:19;;;;;;;3.43;3.27;;;6.30;99.90;9.10;99598.00;;;;6195163;23;20613;-68
2023/12/05 07:08:46;;;;;;;1.10;1.10;;;6.30;99.90;8.10;99596.00;;;;6195986;23;20165;-67
2023/12/05 07:11:12;;;;;;;0.87;0.87;;;6.10;99.90;8.60;99598.00;;;;6220502;23;20147;-67
2023/12/05 07:13:41;;;;;;;0.90;0.90;;;6.10;99.90;8.70;99615.00;;;;6195066;23;20173;-67
2023/12/05 07:16:11;;;;;;;1.40;1.30;;;6.00;99.90;9.00;99620.00;;;;6196353;23;20157;-68
2023/12/05 07:18:37;;;;;;;0.90;0.90;;;6.20;99.90;9.20;99617.00;;;;6196010;23;20503;-68
2023/12/05 07:21:04;;;;;;;0.90;0.90;;;6.40;99.90;9.50;99633.00;;;;6248034;23;20150;-68
2023/12/05 07:23:30;;;;;;;0.90;0.90;;;6.50;99.90;9.90;99633.00;;;;6247617;23;20235;-68
2023/12/05 07:26:00;;;;;;;1.00;1.00;;;6.70;99.90;9.60;99638.00;;;;6220401;23;20223;-68
2023/12/05 07:28:26;;;;;;;1.20;1.20;;;6.90;99.90;9.60;99646.00;;;;6246268;23;20202;-68
2023/12/05 07:30:52;;;;;;;2.27;2.07;;;6.80;99.90;9.70;99655.00;;;;6194314;23;20195;-68
2023/12/05 07:33:21;;;;;;;9.33;6.73;;;6.90;99.90;9.00;99657.00;;;;6195704;23;20200;-67
2023/12/05 07:35:50;;;;;;;3.90;3.60;;;6.70;99.90;9.30;99659.00;;;;6220425;23;20193;-68
2023/12/05 07:38:16;;;;;;;2.27;2.17;;;6.60;99.90;9.30;99621.00;;;;6221246;23;20141;-68
2023/12/05 07:40:42;;;;;;;9.73;6.30;;;6.60;99.90;8.90;99662.00;;;;6195737;23;20500;-67
2023/12/05 07:43:11;;;;;;;1.53;1.53;;;6.50;99.90;9.40;99670.00;;;;6195513;23;20161;-67
2023/12/05 07:45:37;;;;;;;7.43;6.70;;;6.70;99.90;8.90;99678.00;;;;6195232;23;20484;-67
2023/12/05 07:48:06;;;;;;;0.90;0.90;;;6.50;99.90;9.40;99683.00;;;;6195901;23;20156;-67
2023/12/05 07:50:35;;;;;;;1.00;1.00;;;6.50;99.90;9.60;99687.00;;;;6220505;23;20224;-67
2023/12/05 07:53:02;;;;;;;3.87;3.67;;;6.60;99.90;9.60;99703.00;;;;6195581;23;20171;-68
2023/12/05 07:55:28;;;;;;;4.77;4.33;;;6.70;99.90;9.60;99696.00;;;;6220658;23;20217;-68
2023/12/05 07:57:54;;;;;;;2.40;2.13;;;6.70;99.90;9.60;99709.00;;;;6220921;23;20225;-68
2023/12/05 08:00:20;;;;;;;1.80;1.77;;;6.80;99.90;9.60;99710.00;;;;6247109;23;20163;-68
2023/12/05 08:02:47;;;;;;;1.43;1.43;;;6.70;99.90;9.70;99714.00;;;;6195662;23;20229;-68
2023/12/05 08:05:13;;;;;;;4.20;3.80;;;6.70;99.90;9.50;99725.00;;;;6195521;23;20263;-68
2023/12/05 08:07:39;;;;;;;2.80;2.70;;;6.70;99.90;9.80;99728.00;;;;6247539;23;20220;-68
2023/12/05 08:10:07;;;;;;;3.87;3.67;;;6.90;99.90;9.40;99725.00;;;;6194992;23;20155;-68
2023/12/05 08:12:47;;;;;;;1.33;1.30;;;6.70;99.90;8.50;99727.00;;;;6220526;23;20180;-68
2023/12/05 08:15:57;;;;;;;3.70;3.10;;;6.50;99.90;8.90;99727.00;;;;6195418;23;20526;-68
2023/12/05 08:19:03;;;;;;;2.47;2.30;;;6.30;99.90;9.20;99731.00;;;;6195545;23;20185;-68
2023/12/05 08:22:12;;;;;;;2.70;2.53;;;6.40;99.90;9.20;99744.00;;;;6244171;23;20167;-68
2023/12/05 08:25:39;;;;;;;5.20;4.47;;;6.40;99.90;8.50;99748.00;;;;6194180;23;20166;-68
2023/12/05 08:28:32;;;;;;;2.87;2.67;;;6.20;99.90;8.40;99737.00;;;;6247423;23;20148;-68
2023/12/05 08:31:21;;;;;;;2.43;2.27;;;6.20;99.90;8.90;99718.00;;;;6220152;23;20537;-68
2023/12/05 08:34:31;;;;;;;4.27;3.87;;;6.30;99.90;8.80;99754.00;;;;6245100;23;20187;-69
2023/12/05 08:37:06;;;;;;;7.37;4.60;;;6.20;99.90;8.60;99756.00;;;;6195324;23;20150;-69
2023/12/05 08:39:55;;;;;;;16.63;9.43;;;6.30;99.90;8.40;99759.00;;;;6195499;23;20590;-70
2023/12/05 08:42:21;;;;;;;5.80;5.30;;;6.20;99.90;8.60;99744.00;;;;6190308;23;20310;-69
2023/12/05 08:45:10;;;;;;;3.57;3.37;;;6.20;99.90;9.10;99773.00;;;;6195092;23;20568;-68
2023/12/05 08:47:54;;;;;;;0.80;0.80;;;6.30;99.90;8.30;99767.00;;;;6197571;23;20184;-68
2023/12/05 08:50:41;;;;;;;12.10;11.00;;;6.20;99.90;8.90;99777.00;;;;6195056;23;20580;-68
2023/12/05 08:53:12;;;;;;;3.70;3.50;;;6.30;99.90;8.80;99780.00;;;;6195433;23;20187;-68
2023/12/05 08:56:19;;;;;;;9.80;6.87;;;6.30;99.90;7.80;99779.00;;;;6194579;23;20158;-68
2023/12/05 08:59:14;;;;;;;1.20;1.20;;;6.20;99.90;8.90;99775.00;;;;6219395;23;20159;-68
2023/12/05 09:02:24;;;;;;;3.60;3.37;;;6.20;99.90;8.60;99784.00;;;;6216372;23;20179;-68
2023/12/05 09:04:58;;;;;;;9.83;4.70;;;6.10;99.90;8.50;99786.00;;;;6246342;23;20609;-68
2023/12/05 09:07:37;;;;;;;1.73;1.63;;;6.10;99.90;8.50;99748.00;;;;6194533;23;20161;-68
2023/12/05 09:10:09;;;;;;;4.90;4.47;;;6.20;99.90;8.10;99800.00;;;;6219801;23;20571;-68
2023/12/05 09:12:58;;;;;;;3.97;3.63;;;6.00;99.90;8.60;99805.00;;;;6220360;23;20169;-68
2023/12/05 09:15:33;;;;;;;1.43;1.40;;;6.00;99.90;8.90;99812.00;;;;6219587;23;20468;-68
2023/12/05 09:18:05;;;;;;;7.00;5.93;;;6.20;99.90;8.30;99823.00;;;;6246556;23;20139;-68
2023/12/05 09:20:39;;;;;;;7.57;6.90;;;6.10;99.90;7.60;99810.00;;;;6219621;23;20253;-68
2023/12/05 09:23:16;;;;;;;2.07;1.97;;;5.70;99.90;8.20;99834.00;;;;6194204;23;20193;-71
2023/12/05 09:25:42;;;;;;;4.80;3.33;;;5.90;99.90;8.40;99834.00;;;;6194738;23;20169;-74
2023/12/05 09:28:13;;;;;;;5.20;2.30;;;5.90;99.90;8.50;99850.00;;;;6219940;23;20148;-70
2023/12/05 09:30:39;;;;;;;2.53;2.43;;;6.00;99.90;8.70;99854.00;;;;6219876;23;20150;-70
2023/12/05 09:33:13;;;;;;;5.80;3.90;;;6.10;99.90;8.00;99862.00;;;;6218721;23;21034;-70
2023/12/05 09:35:47;;;;;;;5.10;4.20;;;6.00;99.90;7.40;99858.00;;;;6195048;23;20164;-70
2023/12/05 09:38:27;;;;;;;2.50;2.20;;;5.70;99.90;8.90;99830.00;;;;6220105;23;20142;-70
2023/12/05 09:41:19;;;;;;;3.53;3.23;;;6.00;99.90;8.40;99859.00;;;;6194783;23;20155;-70
2023/12/05 09:43:53;;;;;;;3.40;3.20;;;6.20;99.90;8.30;99835.00;;;;6246459;23;20166;-70
2023/12/05 09:46:41;;;;;;;3.40;3.10;;;6.00;99.90;7.70;99865.00;;;;6194697;23;20166;-70
2023/12/05 09:49:18;;;;;;;2.63;2.17;;;5.80;99.90;8.10;99877.00;;;;6220399;23;20142;-70
2023/12/05 09:52:12;;;;;;;0.90;0.90;;;5.80;99.90;8.70;99884.00;;;;6194392;23;20504;-69
2023/12/05 09:54:49;;;;;;;3.07;2.77;;;5.90;99.90;8.50;99853.00;;;;6194480;23;20662;-70
2023/12/05 09:57:28;;;;;;;4.27;4.03;;;6.00;99.90;8.20;99890.00;;;;6219375;23;20599;-69
2023/12/05 10:00:08;;;;;;;2.60;1.90;;;5.90;99.90;8.30;99899.00;;;;6219674;23;20239;-69
2023/12/05 10:02:49;;;;;;;1.23;1.20;;;6.00;99.90;9.10;99898.00;;;;6218905;23;20176;-69
2023/12/05 10:05:30;;;;;;;9.20;7.47;;;6.30;99.90;8.60;99903.00;;;;6194561;23;20577;-69
2023/12/05 10:08:05;;;;;;;11.30;7.47;;;6.20;99.90;8.40;99907.00;;;;6219143;23;20561;-69
2023/12/05 10:10:45;;;;;;;16.00;8.57;;;6.10;99.90;8.20;99911.00;;;;6219059;23;20150;-70
2023/12/05 10:13:20;;;;;;;10.83;6.97;;;5.90;99.90;7.90;99913.00;;;;6219180;23;20174;-70
2023/12/05 10:15:55;;;;;;;1.87;1.73;;;5.80;99.90;8.20;99916.00;;;;6218622;23;20383;-70
2023/12/05 10:18:28;;;;;;;3.77;3.47;;;5.80;99.90;8.30;99932.00;;;;6194261;23;20158;-70
2023/12/05 10:33:32;;;;;;;2.60;2.43;;;4.60;99.90;7.10;99960.00;;;;5090471;28;20525;-69
2023/12/05 10:36:17;;;;;;;1.40;1.23;;;5.00;99.90;8.00;99940.00;;;;5049097;28;20185;-72
2023/12/05 10:39:26;;;;;;;7.87;5.00;;;5.50;99.90;7.70;99939.00;;;;5070365;28;20182;-68
2023/12/05 10:42:53;;;;;;;6.60;3.53;;;5.60;99.90;8.30;99939.00;;;;5054888;28;20194;-68
2023/12/05 10:45:50;;;;;;;0.70;0.70;;;5.70;99.90;7.70;99935.00;;;;5007199;28;20202;-69
2023/12/05 10:48:28;;;;;;;2.20;2.10;;;5.70;99.90;8.00;99910.00;;;;5011105;28;20677;-68
2023/12/05 10:51:18;;;;;;;4.70;4.50;;;5.80;99.90;8.90;99944.00;;;;5059878;28;20182;-66
2023/12/05 10:53:50;;;;;;;1.60;1.60;;;6.00;99.90;9.00;99948.00;;;;5056861;28;20205;-68
2023/12/05 10:56:28;;;;;;;6.67;6.10;;;6.10;99.90;8.50;99952.00;;;;5068794;28;20185;-68
2023/12/05 10:59:06;;;;;;;4.20;3.90;;;6.10;99.90;9.00;99956.00;;;;5052939;28;20194;-68
2023/12/05 11:01:41;;;;;;;6.90;4.27;;;6.30;99.90;8.90;99956.00;;;;5063649;28;20204;-68
2023/12/05 11:04:28;;;;;;;1.67;1.63;;;6.20;99.90;7.80;99965.00;;;;5051045;28;20173;-68
2023/12/05 11:06:54;;;;;;;11.70;1.27;;;6.10;99.90;8.50;99949.00;;;;5049215;28;20645;-68
2023/12/05 11:09:29;;;;;;;14.90;4.37;;;6.00;99.90;8.10;99956.00;;;;5043867;28;20182;-68
2023/12/05 11:12:06;;;;;;;1.20;1.20;;;5.90;99.90;8.50;99962.00;;;;5047214;28;20202;-68
2023/12/05 11:14:41;;;;;;;2.07;1.37;;;6.00;99.90;9.30;99973.00;;;;5059968;28;20187;-69
2023/12/05 11:17:19;;;;;;;4.13;3.90;;;6.20;99.90;8.80;99976.00;;;;5060109;28;20236;-69
2023/12/05 11:20:24;;;;;;;6.73;6.43;;;6.30;99.90;8.70;99973.00;;;;5059489;28;20214;-66
2023/12/05 11:23:45;;;;;;;2.83;2.73;;;6.20;99.90;8.60;99991.00;;;;5066545;28;20189;-67
2023/12/05 11:26:32;;;;;;;2.50;2.30;;;6.20;99.90;8.40;99988.00;;;;5069562;28;20489;-69
2023/12/05 11:29:53;;;;;;;7.23;3.40;;;6.10;99.90;8.60;99990.00;;;;5064555;28;20643;-69
2023/12/05 11:33:11;;;;;;;2.90;2.80;;;6.00;99.90;8.80;99991.00;;;;5066309;28;20217;-69
2023/12/05 11:35:58;;;;;;;3.40;3.20;;;5.90;99.90;8.80;99992.00;;;;5006986;28;20207;-69
2023/12/05 11:39:08;;;;;;;1.30;1.20;;;6.00;99.90;9.00;100009.00;;;;5047185;28;20274;-67
2023/12/05 11:41:42;;;;;;;2.87;2.63;;;6.30;99.90;9.20;100005.00;;;;5060219;28;20203;-67
2023/12/05 11:44:14;;;;;;;1.00;1.00;;;6.30;99.90;9.40;100009.00;;;;5056938;28;20190;-67
2023/12/05 11:46:48;;;;;;;5.43;4.93;;;6.40;99.90;9.40;100014.00;;;;5054237;28;20672;-67
2023/12/05 11:49:39;;;;;;;5.40;4.97;;;6.40;99.90;9.40;100020.00;;;;5057486;28;20190;-67
2023/12/05 11:52:13;;;;;;;5.37;3.63;;;6.50;99.90;10.10;100020.00;;;;5035441;28;20293;-67
2023/12/05 11:54:45;;;;;;;2.23;2.13;;;6.70;99.90;9.00;100021.00;;;;5058453;28;20184;-69
2023/12/05 11:57:23;;;;;;;2.50;2.40;;;6.50;99.90;9.40;100020.00;;;;5054461;28;20197;-67
2023/12/05 11:59:52;;;;;;;1.17;1.17;;;6.50;99.90;9.50;100019.00;;;;5057293;28;20185;-67
2023/12/05 12:02:55;;;;;;;15.47;3.73;;;6.50;99.90;9.80;100023.00;;;;5037122;28;20196;-67
2023/12/05 12:05:53;;;;;;;3.40;3.30;;;6.70;99.90;10.10;100029.00;;;;5038094;28;20207;-67
2023/12/05 12:08:45;;;;;;;1.20;1.20;;;7.00;99.90;10.00;100035.00;;;;5050264;28;20249;-67
2023/12/05 12:11:54;;;;;;;1.37;1.37;;;6.80;99.90;10.10;100039.00;;;;5050694;28;20190;-67
2023/12/05 12:15:02;;;;;;;6.43;5.27;;;7.00;99.90;10.30;100051.00;;;;5039356;28;20279;-67
2023/12/05 12:18:06;;;;;;;1.20;1.20;;;7.20;99.90;9.90;100052.00;;;;5053934;28;20182;-68
2023/12/05 12:20:51;;;;;;;5.40;4.97;;;7.00;99.90;9.90;100045.00;;;;5053758;28;20232;-67
2023/12/05 12:23:40;;;;;;;1.80;1.80;;;7.00;99.90;9.90;100059.00;;;;5046399;28;20592;-67
2023/12/05 12:26:23;;;;;;;1.20;1.20;;;6.90;99.90;9.80;100063.00;;;;5033413;28;20189;-67
2023/12/05 12:29:25;;;;;;;1.20;1.20;;;6.90;99.90;9.80;100069.00;;;;5038170;28;20193;-68
2023/12/05 12:32:22;;;;;;;1.57;1.57;;;6.70;99.90;9.80;100065.00;;;;5045042;28;20709;-67
2023/12/05 12:35:06;;;;;;;8.43;7.60;;;6.80;99.90;9.70;100070.00;;;;5054003;28;20731;-68
2023/12/05 12:37:35;;;;;;;3.17;2.97;;;6.70;99.90;9.80;100070.00;;;;5053774;28;20249;-67
2023/12/05 12:40:06;;;;;;;1.57;1.57;;;6.80;99.90;9.90;100068.00;;;;5053269;28;20275;-67
2023/12/05 12:42:35;;;;;;;4.70;4.33;;;6.80;99.90;10.10;100080.00;;;;5043254;28;20732;-67
2023/12/05 12:45:07;;;;;;;10.27;9.33;;;7.00;99.90;9.80;100070.00;;;;5052454;28;20182;-67
2023/12/05 12:48:06;;;;;;;2.13;2.07;;;6.80;99.90;9.00;100078.00;;;;5066484;28;20176;-67
2023/12/05 12:50:49;;;;;;;2.80;2.70;;;6.70;99.90;9.60;100080.00;;;;5034753;28;20185;-68
2023/12/05 12:53:52;;;;;;;3.67;3.03;;;6.60;99.90;10.00;100085.00;;;;5037796;28;20224;-68
2023/12/05 12:56:30;;;;;;;1.57;1.57;;;6.80;99.90;10.00;100073.00;;;;5031121;28;20528;-69
2023/12/05 12:59:10;;;;;;;2.00;1.93;;;7.00;99.90;10.00;100106.00;;;;5053013;28;20178;-68
2023/12/05 13:01:40;;;;;;;4.63;2.40;;;7.00;99.90;9.40;100103.00;;;;5050725;28;20710;-69
2023/12/05 13:04:16;;;;;;;2.70;2.60;;;6.80;99.90;10.00;100098.00;;;;5047881;28;20205;-69
2023/12/05 13:06:48;;;;;;;1.17;1.17;;;6.90;99.90;10.10;100075.00;;;;5035809;28;20191;-68
2023/12/05 13:09:19;;;;;;;1.50;1.43;;;6.90;99.90;9.70;100109.00;;;;5049970;28;20204;-69
2023/12/05 13:11:53;;;;;;;1.10;1.10;;;6.90;99.90;9.40;100099.00;;;;5052401;28;20742;-68
2023/12/05 13:14:22;;;;;;;9.53;8.47;;;6.60;99.90;9.30;100106.00;;;;5034441;28;20282;-68
2023/12/05 13:16:56;;;;;;;2.57;2.47;;;6.60;99.90;10.00;100099.00;;;;5052327;28;20187;-68
2023/12/05 13:19:30;;;;;;;4.43;4.23;;;6.80;99.90;10.00;100112.00;;;;5052613;28;20192;-68
2023/12/05 13:21:57;;;;;;;0.93;0.93;;;6.90;99.90;9.70;100118.00;;;;5052996;28;20190;-69
2023/12/05 13:24:28;;;;;;;1.10;1.10;;;6.90;99.90;9.60;100114.00;;;;5055572;28;20562;-68
2023/12/05 13:26:58;;;;;;;1.43;1.43;;;6.90;99.90;9.50;100075.00;;;;5051513;28;20207;-69
2023/12/05 13:29:33;;;;;;;1.10;1.10;;;6.70;99.90;9.90;100111.00;;;;5032858;28;20202;-69
2023/12/05 13:31:59;;;;;;;1.53;1.53;;;6.80;99.90;9.00;100110.00;;;;5052701;28;20270;-69
2023/12/05 13:34:31;;;;;;;1.00;1.00;;;6.60;99.90;9.40;100115.00;;;;5056511;28;20224;-68
2023/12/05 13:37:02;;;;;;;1.83;1.73;;;6.60;99.90;10.10;100113.00;;;;5051427;28;20185;-68
2023/12/05 13:39:48;;;;;;;1.00;1.00;;;6.90;99.90;10.00;100133.00;;;;5052053;28;20271;-69
2023/12/05 13:42:14;;;;;;;2.00;2.00;;;6.90;99.90;9.90;100134.00;;;;5041428;28;20751;-68
2023/12/05 13:44:45;;;;;;;2.03;2.00;;;6.90;99.90;10.20;100148.00;;;;5053857;28;20651;-68
2023/12/05 13:47:14;;;;;;;1.40;1.40;;;7.00;99.90;10.40;100147.00;;;;5053342;28;20182;-68
2023/12/05 13:49:40;;;;;;;1.30;1.30;;;7.10;99.90;10.30;100148.00;;;;5048947;28;20189;-68
2023/12/05 13:52:14;;;;;;;1.50;1.50;;;7.10;99.90;10.40;100153.00;;;;5053352;28;20203;-68
2023/12/05 13:54:42;;;;;;;1.80;1.80;;;7.20;99.90;10.20;100169.00;;;;5048885;28;20193;-68
2023/12/05 13:57:09;;;;;;;1.63;1.63;;;7.20;99.90;10.30;100161.00;;;;5052001;28;20186;-68
2023/12/05 13:59:51;;;;;;;1.53;1.53;;;7.20;99.90;10.20;100162.00;;;;5045295;28;20293;-68
2023/12/05 14:02:18;;;;;;;1.53;1.53;;;7.10;99.90;10.40;100169.00;;;;5053449;28;20188;-69
2023/12/05 14:04:47;;;;;;;2.67;2.57;;;7.10;99.90;9.50;100174.00;;;;5056992;28;20210;-67
2023/12/05 14:07:21;;;;;;;2.17;2.17;;;7.00;99.90;10.00;100168.00;;;;5053321;28;20224;-67
2023/12/05 14:09:47;;;;;;;1.93;1.93;;;6.90;99.90;10.30;100166.00;;;;5059706;28;21033;-67
2023/12/05 14:12:13;;;;;;;1.30;1.30;;;7.10;99.90;10.30;100170.00;;;;5052668;28;20662;-67
2023/12/05 14:14:41;;;;;;;3.00;2.90;;;7.10;99.90;10.40;100177.00;;;;5058009;28;20273;-67
2023/12/05 14:17:08;;;;;;;1.50;1.50;;;7.30;99.90;9.30;100179.00;;;;5034586;28;20656;-67
2023/12/05 14:19:36;;;;;;;1.23;1.23;;;6.90;99.90;10.30;100182.00;;;;5062649;28;20184;-67
2023/12/05 14:22:17;;;;;;;1.50;1.50;;;7.00;99.90;10.50;100190.00;;;;5050811;28;20201;-67
2023/12/05 14:24:43;;;;;;;1.80;1.80;;;7.20;99.90;10.70;100191.00;;;;5050760;28;20182;-67
2023/12/05 14:27:14;;;;;;;2.23;2.17;;;7.40;99.90;10.40;100210.00;;;;5054238;28;20186;-67
2023/12/05 14:29:51;;;;;;;4.40;4.20;;;7.40;99.90;10.70;100207.00;;;;5052063;28;20208;-67
2023/12/05 14:32:26;;;;;;;1.20;1.20;;;7.40;99.90;10.30;100209.00;;;;5052551;28;20209;-67
2023/12/05 14:35:04;;;;;;;1.30;1.30;;;7.30;99.90;10.70;100215.00;;;;5034474;28;20182;-67
2023/12/05 14:37:35;;;;;;;1.30;1.30;;;7.40;99.90;10.50;100217.00;;;;5052051;28;20194;-67
2023/12/05 14:40:07;;;;;;;1.30;1.30;;;7.30;99.90;10.40;100191.00;;;;5051567;28;20579;-67
2023/12/05 14:42:39;;;;;;;1.40;1.40;;;7.20;99.90;10.30;100208.00;;;;5061978;28;20568;-67
2023/12/05 14:45:13;;;;;;;1.10;1.10;;;7.30;99.90;10.30;100207.00;;;;5051335;28;20180;-67
2023/12/05 14:47:45;;;;;;;3.17;3.07;;;7.20;99.90;10.70;100225.00;;;;5059977;28;20183;-67
2023/12/05 14:50:19;;;;;;;1.60;1.60;;;7.30;99.90;10.70;100232.00;;;;5050786;28;20587;-67
2023/12/05 14:53:00;;;;;;;1.40;1.40;;;7.40;99.90;10.70;100246.00;;;;5039491;28;20733;-67
2023/12/05 14:55:34;;;;;;;3.77;3.60;;;7.50;99.90;10.80;100230.00;;;;5051068;28;20188;-66
2023/12/05 14:58:14;;;;;;;1.53;1.53;;;7.50;99.90;10.60;100254.00;;;;5035869;28;20196;-67
2023/12/05 15:00:41;;;;;;;1.57;1.53;;;7.40;99.90;10.20;100240.00;;;;5025236;28;20673;-66
2023/12/05 15:03:19;;;;;;;1.63;1.63;;;7.30;99.90;10.30;100244.00;;;;5046114;28;20219;-66
2023/12/05 15:05:57;;;;;;;1.87;1.73;;;7.30;99.90;10.40;100254.00;;;;5051377;28;20195;-66
2023/12/05 15:08:37;;;;;;;2.57;2.43;;;7.40;99.90;10.20;100260.00;;;;5050788;28;20570;-66
2023/12/05 15:11:11;;;;;;;1.97;1.87;;;7.40;99.90;10.10;100246.00;;;;5034301;28;20182;-66
2023/12/05 15:13:48;;;;;;;1.50;1.50;;;7.20;99.90;10.50;100264.00;;;;5052427;28;20199;-67
2023/12/05 15:16:22;;;;;;;1.77;1.77;;;7.30;99.90;10.30;100240.00;;;;5051236;28;20182;-66
2023/12/05 15:18:56;;;;;;;1.93;1.93;;;7.40;99.90;10.50;100260.00;;;;5052814;28;20181;-67
2023/12/05 15:21:25;;;;;;;2.30;2.20;;;7.30;99.90;10.60;100265.00;;;;5054855;28;20271;-67
2023/12/05 15:23:57;;;;;;;1.37;1.37;;;7.40;99.90;10.80;100269.00;;;;5054927;28;20242;-67
2023/12/05 15:26:38;;;;;;;3.80;3.47;;;7.50;99.90;10.80;100291.00;;;;5055081;28;20182;-67
2023/12/05 15:29:09;;;;;;;1.33;1.33;;;7.60;99.90;10.20;100294.00;;;;5055102;28;20227;-67
2023/12/05 15:31:50;;;;;;;1.30;1.30;;;7.30;99.90;10.50;100281.00;;;;5054691;28;20214;-66
2023/12/05 15:34:22;;;;;;;1.20;1.20;;;7.30;99.90;10.50;100288.00;;;;5054713;28;20546;-67
2023/12/05 15:37:01;;;;;;;1.10;1.10;;;7.40;99.90;10.80;100293.00;;;;5035826;28;20186;-67
2023/12/05 15:40:06;;;;;;;1.30;1.30;;;7.50;99.90;10.10;100294.00;;;;5018614;28;20180;-66
2023/12/05 15:42:38;;;;;;;2.13;2.03;;;7.30;99.90;10.50;100305.00;;;;5018937;28;20193;-67
2023/12/05 15:45:09;;;;;;;1.93;1.90;;;7.30;99.90;10.90;100298.00;;;;5050815;28;20184;-67
2023/12/05 15:47:49;;;;;;;1.97;1.97;;;7.50;99.90;10.50;100317.00;;;;5055074;28;20250;-66
2023/12/05 15:50:18;;;;;;;1.50;1.50;;;7.50;99.90;10.30;100318.00;;;;5038463;28;20602;-67
2023/12/05 15:52:47;;;;;;;1.90;1.80;;;7.40;99.90;10.10;100315.00;;;;5035340;28;20251;-67
2023/12/05 15:55:20;;;;;;;2.03;1.83;;;7.20;99.90;10.50;100313.00;;;;5046211;28;20192;-69
2023/12/05 15:57:52;;;;;;;2.73;2.63;;;7.20;99.90;9.80;100311.00;;;;5054534;28;20197;-66
2023/12/05 16:00:21;;;;;;;1.03;1.03;;;7.10;99.90;10.00;100299.00;;;;5054197;28;20252;-69
2023/12/05 16:02:50;;;;;;;2.47;2.27;;;7.10;99.90;10.40;100305.00;;;;5055401;28;20279;-67
2023/12/05 16:05:21;;;;;;;1.30;1.30;;;7.20;99.90;10.40;100319.00;;;;5037560;28;20204;-66
2023/12/05 16:08:05;;;;;;;1.97;1.87;;;7.20;99.90;10.90;100321.00;;;;5055106;28;20197;-67
2023/12/05 16:10:31;;;;;;;1.50;1.50;;;7.50;99.90;11.00;100335.00;;;;5042265;28;20179;-67
2023/12/05 16:12:57;;;;;;;2.67;2.57;;;7.70;99.90;10.80;100326.00;;;;5055911;28;20198;-67
2023/12/05 16:15:26;;;;;;;3.90;3.70;;;7.60;99.90;10.90;100338.00;;;;5053941;28;20187;-66
2023/12/05 16:18:00;;;;;;;1.47;1.47;;;7.70;99.90;10.90;100318.00;;;;5054857;28;20190;-67
2023/12/05 16:20:28;;;;;;;1.30;1.30;;;7.70;99.90;10.30;100343.00;;;;5048942;28;20542;-66
2023/12/05 16:23:22;;;;;;;1.23;1.23;;;7.40;99.90;10.30;100349.00;;;;5054347;28;20717;-66
2023/12/05 16:25:54;;;;;;;1.20;1.20;;;7.30;99.90;10.40;100347.00;;;;5039457;28;20213;-66
2023/12/05 16:28:22;;;;;;;9.23;3.13;;;7.20;99.90;10.70;100356.00;;;;5040955;28;20196;-67
2023/12/05 16:30:51;;;;;;;2.70;1.77;;;7.40;99.90;10.70;100364.00;;;;5055514;28;20244;-67
2023/12/05 16:33:19;;;;;;;2.20;2.10;;;7.60;99.90;11.00;100362.00;;;;5057243;28;20215;-67
2023/12/05 16:36:29;;;;;;;1.10;1.10;;;7.70;99.90;10.60;100380.00;;;;5054120;28;20173;-67
2023/12/05 16:39:26;;;;;;;1.90;1.80;;;7.60;99.90;10.70;100372.00;;;;5043473;28;20791;-67
2023/12/05 16:42:16;;;;;;;1.40;1.40;;;7.50;99.90;10.60;100380.00;;;;5051885;28;20193;-67
2023/12/05 16:45:23;;;;;;;1.30;1.30;;;7.50;99.90;11.00;100372.00;;;;5052983;28;20198;-67
2023/12/05 16:48:24;;;;;;;2.17;2.07;;;7.50;99.90;11.00;100384.00;;;;5061353;28;20194;-67
2023/12/05 16:51:27;;;;;;;1.30;1.30;;;7.60;99.90;10.70;100391.00;;;;5053627;28;20193;-67
2023/12/05 16:54:14;;;;;;;1.40;1.40;;;7.70;99.90;10.50;100395.00;;;;5039304;28;20193;-67
2023/12/05 16:57:35;;;;;;;3.27;2.97;;;7.50;99.90;10.90;100354.00;;;;5051783;28;20193;-67
2023/12/05 17:00:46;;;;;;;1.90;1.90;;;7.60;99.90;10.60;100391.00;;;;5050940;28;20183;-67
2023/12/05 17:03:35;;;;;;;2.57;2.47;;;7.60;99.90;10.50;100399.00;;;;5038691;28;20543;-67
2023/12/05 17:06:24;;;;;;;1.63;1.63;;;7.50;99.90;10.30;100409.00;;;;4999730;28;20204;-67
2023/12/05 17:09:02;;;;;;;3.60;3.30;;;7.40;99.90;10.90;100406.00;;;;4983062;28;20199;-67
2023/12/05 17:12:11;;;;;;;1.50;1.50;;;7.50;99.90;10.50;100418.00;;;;4976398;28;20567;-67
2023/12/05 17:15:27;;;;;;;2.03;2.03;;;7.50;99.90;10.60;100411.00;;;;4968634;28;20217;-67
2023/12/05 17:18:02;;;;;;;3.33;3.03;;;7.50;99.90;10.50;100415.00;;;;4967279;28;20202;-67
2023/12/05 17:20:57;;;;;;;1.90;1.90;;;7.50;99.90;10.30;100424.00;;;;4966556;28;20208;-67
2023/12/05 17:24:11;;;;;;;1.60;1.60;;;7.40;99.90;10.70;100427.00;;;;4987697;28;20212;-67
2023/12/05 17:27:24;;;;;;;1.50;1.50;;;7.50;99.90;10.70;100424.00;;;;4974044;28;20247;-67
2023/12/05 17:30:55;;;;;;;1.57;1.57;;;7.60;99.90;10.70;100429.00;;;;4995016;28;20243;-67
2023/12/05 17:33:55;;;;;;;4.57;4.37;;;7.50;99.90;10.80;100443.00;;;;4955739;28;20558;-67
2023/12/05 17:36:42;;;;;;;2.30;2.20;;;7.60;99.90;10.50;100443.00;;;;4952061;28;20207;-67
2023/12/05 17:39:19;;;;;;;1.50;1.50;;;7.50;99.90;10.50;100444.00;;;;4975940;28;20192;-67
2023/12/05 17:42:14;;;;;;;1.50;1.50;;;7.50;99.90;10.30;100446.00;;;;4974621;28;20218;-67
2023/12/05 17:45:09;;;;;;;1.60;1.60;;;7.30;99.90;10.00;100454.00;;;;5042300;28;20197;-67
2023/12/05 17:48:05;;;;;;;2.33;2.23;;;7.20;99.90;10.50;100441.00;;;;5037450;28;20198;-67
2023/12/05 17:50:33;;;;;;;2.37;2.27;;;7.30;99.90;10.50;100456.00;;;;5051711;28;20213;-67
2023/12/05 17:53:02;;;;;;;1.60;1.60;;;7.40;99.90;10.60;100454.00;;;;5051015;28;20209;-67
2023/12/05 17:55:55;;;;;;;2.13;2.13;;;7.50;99.90;10.80;100460.00;;;;5058609;28;20778;-67
2023/12/05 17:59:07;;;;;;;1.77;1.77;;;7.50;99.90;11.10;100470.00;;;;5028084;28;20206;-67
2023/12/05 18:02:08;;;;;;;5.33;5.03;;;7.60;99.90;10.90;100454.00;;;;5026944;28;20205;-67
2023/12/05 18:05:09;;;;;;;2.20;2.20;;;7.70;99.90;11.20;100486.00;;;;5051878;28;20651;-67
2023/12/05 18:07:37;;;;;;;3.33;3.23;;;7.70;99.90;10.90;100486.00;;;;5051365;28;20686;-67
2023/12/05 18:10:33;;;;;;;2.20;2.20;;;7.60;99.90;11.00;100482.00;;;;5051780;28;20666;-67
2023/12/05 18:13:22;;;;;;;2.27;2.27;;;7.60;99.90;11.20;100496.00;;;;5043702;28;20240;-67
2023/12/05 18:16:02;;;;;;;2.07;2.07;;;7.70;99.90;11.00;100492.00;;;;5053284;28;20186;-67
2023/12/05 18:18:57;;;;;;;18.60;17.43;;;7.70;99.90;11.00;100471.00;;;;5052355;28;20193;-67
2023/12/05 18:25:42;;;;;;;2.10;2.10;;;7.60;99.90;10.70;100515.00;;;;5051816;28;20209;-68
2023/12/05 18:28:38;;;;;;;2.10;2.10;;;7.60;99.90;10.70;100518.00;;;;5035474;28;20206;-68
2023/12/05 18:31:52;;;;;;;2.07;2.03;;;7.60;99.90;10.30;100512.00;;;;5035058;28;20205;-67
2023/12/05 18:34:42;;;;;;;1.67;1.67;;;7.40;99.90;10.50;100523.00;;;;5028868;28;20194;-67
2023/12/05 18:37:20;;;;;;;2.73;2.53;;;7.30;99.90;10.20;100513.00;;;;5051840;28;20186;-67
2023/12/05 18:40:29;;;;;;;5.47;4.93;;;7.20;99.90;10.00;100522.00;;;;5051579;28;20190;-67
2023/12/05 18:43:05;;;;;;;1.47;1.47;;;7.00;99.90;10.30;100529.00;;;;5040097;28;20196;-67
2023/12/05 18:45:42;;;;;;;2.13;2.10;;;7.10;99.90;9.60;100525.00;;;;5045783;28;20559;-67
2023/12/05 18:48:17;;;;;;;2.90;2.80;;;6.90;99.90;9.30;100528.00;;;;5051048;28;20178;-67
2023/12/05 18:50:52;;;;;;;3.10;2.90;;;6.70;99.90;9.40;100522.00;;;;5052002;28;20208;-67
2023/12/05 18:53:32;;;;;;;2.73;2.63;;;6.70;99.90;9.70;100535.00;;;;5043014;28;20214;-67
2023/12/05 18:56:11;;;;;;;2.87;2.77;;;6.80;99.90;9.90;100550.00;;;;5051261;28;20185;-67
2023/12/05 18:58:48;;;;;;;2.67;2.57;;;6.80;99.90;9.30;100555.00;;;;5055854;28;20186;-67
2023/12/05 19:01:28;;;;;;;1.63;1.63;;;6.60;99.90;9.70;100559.00;;;;5045637;28;20174;-67
2023/12/05 19:04:03;;;;;;;2.30;2.20;;;6.60;99.90;9.40;100545.00;;;;5041712;28;20245;-67
2023/12/05 19:06:40;;;;;;;1.80;1.80;;;6.60;99.90;9.40;100572.00;;;;5078657;28;20217;-67
2023/12/05 19:09:12;;;;;;;2.03;2.00;;;6.40;99.90;9.40;100572.00;;;;5040116;28;20280;-67
2023/12/05 19:12:05;;;;;;;1.90;1.90;;;6.50;99.90;9.60;100590.00;;;;5059724;28;20213;-68
2023/12/05 19:14:33;;;;;;;3.60;3.37;;;6.50;99.90;9.20;100588.00;;;;5054613;28;20639;-68
2023/12/05 19:17:18;;;;;;;3.07;2.97;;;6.50;99.90;9.60;100583.00;;;;5042743;28;20193;-67